Česky Dansk Deutsch English Español Suomi Français Magyar Italiano Nederlands norsk Polski Português svenska Türkçe

 

Het Weer

Taif (Saudi-Arabië)

09:00, 5 augustus 2016 (GMT)

NWNNE
WE
SWSSE
Home            
Taif Makkah Jeddah Jeddah King Abdul Aziz International Airport Al Baha Bisha Madinah Yenbo Port Sudan Port Sudan International Abha Khamis Mushait Wadi Al Dawasser Airport Dawadmi Gizan Najran Sa'Ada / Sadah Gassim Massawa Wejh Hail Asmara Agordat

Om een weerknop op uw website of weblog te plaatsen, copieer onderstaande code en plak die in uw pagina. In het eerste vakje staat HTML-code, in het tweede vakje UBB-code.


Add to Google

Details

Wind speed:4 bf, 12 kn, 6.2 m/s, 13.8 miles/h, 22.2 km/h
Wind direction:NNE, 030°
Visibility:Greater than 10000 m, 10 km, 32800 ft, 6.2 miles
Clouds:CAVOC
Temperature:37°C, 99°F
Gefühlte Temperatur:38°C, 100°F
Dew-point:16°C, 61°F
Atmospheric pressure:1016 hPa, 762.1 mmHg, 30.00 inHg, 1.003 atm
Relative humidity:29.0 %
METAR:OETF 050900Z 03012KT CAVOK 37/16 Q1016 NOSIG

Snelkoppelingen

Actuele weersinformatie van de hele wereld. Voeg locaties toe met het plus (+) symbool. Deze snelkoppelingen kunnen worden toegevoegd aan Google.

Lid van de Technetium groep

website free tracking
StatCounter NetStat W3C Validator

14-04-2021 10:25:35
astro.technetium.be money.technetium.be phote.technetium.be tafeltennistafel.technetium.be www.ligfiets.net